Terminal Aerodrome Forecast
Issued by NWS

Home | Current Version | Previous Version | Text Only | Print | Product List | Glossary On
Versions: 1 2 3 4 5 6 7 8 9 10 11 12 13 14 15 16
502
FTUS41 KBTV 230533
TAFMSS
TAF
KMSS 230533Z 2306/2406 VRB04KT 2SM BR FEW001
      TEMPO 2306/2310 1SM BR VV001
     FM231000 00000KT P6SM SKC
     FM231500 22010KT P6SM FEW250
     FM232100 23015G22KT P6SM FEW200
     FM240500 21008KT P6SM BKN060=

USA.gov is the U.S. government's official web portal to all federal, state and local government web resources and services.